Airfield :
LOGIN :

Register | Disclaimer

   EN    FR    IT 

 










Legend :    VFR   Marginal VFR   IFR   Intensive IFR   Very Intensive IFR
Visi :
Ceiling :
>= 8 km
>= 3000ft
5 to 8 km
1000 to 3000 ft
1500m to 5 km
500 to 1000 ft
800 to 1500m
200 to 500 ft
< 800m
< 200 ft
Symbols :   Thunderstorms  Fog  Heavy snow  Heavy precipitations  Wind > 20 kt
SIGMETs :     Misc.  Thunderstorms  Icing  Turbulence  Mountain Waves  Volcanic Ashes







- Airport Elevation : 122 ft
- IATA code : TXL


EDDT - Berlin Tegel Int.

CURRENT METAR :
  • 172250Z 26012KT 9000 -SHSNRA BKN015TCU BKN035 02/00 Q1002

EXPIRED METARs :
  • 172220Z 26014KT 9999 SCT018 BKN035 03/00 Q1002
  • 172150Z 25014KT 9999 SCT018 BKN035 03/00 Q1002 NOSIG
  • 172120Z 26013KT 9999 SCT017 BKN040 03/00 Q1001 NOSIG
  • 172050Z 27012KT 9999 SCT012 BKN025 03/01 Q1001 NOSIG
  • 172020Z 26014KT 9999 SCT012 BKN025 03/01 Q1000 NOSIG

TAF TAF EDDT
Valid from the 17 at 18:00 until the 18 at 18:00 UTC


171700Z 1718/1818 25012KT 9999 FEW015 BKN030
BECMG 1718/1722 29015G25KT
PROB30
TEMPO 1718/1721 27015G30KT SHRAGS BKN012CB
TEMPO 1721/1803 32015G30KT 2500 SHSN BKN008CB
PROB30
TEMPO 1722/1801 32020G35KT 1200 TSGS BKN004 BKN008CB
TEMPO 1803/1807 4500 -SN BKN013
BECMG 1803/1806 29010KT
No reported NOTAMs for that airfield.



MET'MAP, your aeronautical weather chart ! - Copyright ORBIFLY December 2007 - Disclaimer

ORBIFLY MET'MAP TEAM :

Programming & Development : Alexandra Zaïnal
Concept & Development : Baudouin d'Aumeries
Co-Development & Prog : Marc-Olivier Méhu
Technical & hardware support : Manuel Goepfert

Contact : metmap@orbifly.com




SOURCES & CREDITS :

   NOAA